Time;durP1;ratioP1;P1;durP2;ratioP2;P2;SDS_P1;SDS_P2;PMS_P1;PMS_P2;Temp;Humidity;BMP_temperature;BMP_pressure;BME280_temperature;BME280_humidity;BME280_pressure;Samples;Min_cycle;Max_cycle;Signal;HPM_P1;HPM_P2
2022/11/13 00:02:04;;;;;;;;;;;;;;;;;;6249791;22;20252;-82
2022/11/13 00:04:30;;;;;;;;;;;;;;;;;;6276842;22;20006;-82
2022/11/13 00:06:56;;;;;;;;;;;;;;;;;;6249608;22;20236;-82
2022/11/13 00:09:22;;;;;;;;;;;;;;;;;;6249753;22;19918;-83
2022/11/13 00:11:47;;;;;;;;;;;;;;;;;;6249590;22;19915;-82
2022/11/13 00:14:13;;;;;;;;;;;;;;;;;;6249733;22;20209;-82
2022/11/13 00:16:39;;;;;;;;;;;;;;;;;;6249296;22;19915;-82
2022/11/13 00:19:05;;;;;;;;;;;;;;;;;;6249530;22;20059;-81
2022/11/13 00:21:32;;;;;;;;;;;;;;;;;;6249773;22;20320;-82
2022/11/13 00:23:57;;;;;;;;;;;;;;;;;;6249585;22;19926;-82
2022/11/13 00:26:23;;;;;;;;;;;;;;;;;;6276605;22;19911;-82
2022/11/13 00:28:49;;;;;;;;;;;;;;;;;;6276081;22;20247;-82
2022/11/13 00:31:15;;;;;;;;;;;;;;;;;;6277264;22;19917;-82
2022/11/13 00:33:41;;;;;;;;;;;;;;;;;;6249509;22;19981;-82
2022/11/13 00:36:07;;;;;;;;;;;;;;;;;;6276967;22;19944;-83
2022/11/13 00:38:33;;;;;;;;;;;;;;;;;;6276805;22;19950;-82
2022/11/13 00:40:59;;;;;;;;;;;;;;;;;;6249458;22;19943;-82
2022/11/13 00:43:25;;;;;;;;;;;;;;;;;;6249357;22;19911;-82
2022/11/13 00:45:52;;;;;;;;;;;;;;;;;;6223458;22;19911;-83
2022/11/13 00:48:18;;;;;;;;;;;;;;;;;;6249421;22;19915;-83
2022/11/13 00:50:47;;;;;;;;;;;;;;;;;;6249413;22;19911;-82
2022/11/13 00:53:12;;;;;;;;;;;;;;;;;;6249402;22;19911;-83
2022/11/13 00:55:38;;;;;;;;;;;;;;;;;;6249269;22;19960;-82
2022/11/13 00:58:04;;;;;;;;;;;;;;;;;;6249025;22;19915;-82
2022/11/13 01:00:30;;;;;;;;;;;;;;;;;;6218901;23;19915;-82
2022/11/13 01:02:56;;;;;;;;;;;;;;;;;;6219094;23;20266;-83
2022/11/13 01:05:22;;;;;;;;;;;;;;;;;;6219041;23;19911;-82
2022/11/13 01:07:48;;;;;;;;;;;;;;;;;;6193802;23;20237;-82
2022/11/13 01:10:14;;;;;;;;;;;;;;;;;;6218886;23;19911;-82
2022/11/13 01:12:40;;;;;;;;;;;;;;;;;;6245989;23;19911;-82
2022/11/13 01:15:06;;;;;;;;;;;;;;;;;;6218747;23;20309;-82
2022/11/13 01:17:31;;;;;;;;;;;;;;;;;;6218676;23;20318;-83
2022/11/13 01:19:57;;;;;;;;;;;;;;;;;;6218576;23;19962;-82
2022/11/13 01:22:23;;;;;;;;;;;;;;;;;;6193554;23;19943;-83
2022/11/13 01:24:49;;;;;;;;;;;;;;;;;;6245996;23;20126;-82
2022/11/13 01:27:15;;;;;;;;;;;;;;;;;;6218491;23;19915;-82
2022/11/13 01:29:41;;;;;;;;;;;;;;;;;;6193629;23;20325;-82
2022/11/13 01:32:07;;;;;;;;;;;;;;;;;;6218653;23;20348;-82
2022/11/13 01:34:33;;;;;;;;;;;;;;;;;;6218562;23;19912;-82
2022/11/13 01:36:59;;;;;;;;;;;;;;;;;;6245393;22;19918;-82
2022/11/13 01:39:24;;;;;;;;;;;;;;;;;;6193454;23;19915;-83
2022/11/13 01:41:52;;;;;;;;;;;;;;;;;;6218624;23;20347;-82
2022/11/13 01:44:18;;;;;;;;;;;;;;;;;;6218604;23;19916;-81
2022/11/13 01:46:44;;;;;;;;;;;;;;;;;;6218277;23;19918;-83
2022/11/13 01:49:10;;;;;;;;;;;;;;;;;;6193265;23;19911;-82
2022/11/13 01:51:35;;;;;;;;;;;;;;;;;;6218404;23;20241;-82
2022/11/13 01:54:01;;;;;;;;;;;;;;;;;;6245558;23;19911;-83
2022/11/13 01:56:27;;;;;;;;;;;;;;;;;;6218220;23;19991;-82
2022/11/13 01:58:53;;;;;;;;;;;;;;;;;;6218235;23;20233;-81
2022/11/13 02:01:19;;;;;;;;;;;;;;;;;;6238101;22;19954;-82
2022/11/13 02:03:45;;;;;;;;;;;;;;;;;;6248699;22;19911;-82
2022/11/13 02:06:11;;;;;;;;;;;;;;;;;;6248538;22;19977;-81
2022/11/13 02:08:37;;;;;;;;;;;;;;;;;;6276070;22;19949;-82
2022/11/13 02:11:03;;;;;;;;;;;;;;;;;;6248524;22;19911;-82
2022/11/13 02:13:29;;;;;;;;;;;;;;;;;;6223299;22;19911;-82
2022/11/13 02:15:54;;;;;;;;;;;;;;;;;;6248715;22;19911;-82
2022/11/13 02:18:20;;;;;;;;;;;;;;;;;;6248396;22;20310;-82
2022/11/13 02:20:46;;;;;;;;;;;;;;;;;;6248471;22;19917;-82
2022/11/13 02:23:12;;;;;;;;;;;;;;;;;;6248532;22;19911;-82
2022/11/13 02:25:38;;;;;;;;;;;;;;;;;;6248655;22;19974;-82
2022/11/13 02:28:04;;;;;;;;;;;;;;;;;;6248436;22;19912;-82
2022/11/13 02:30:30;;;;;;;;;;;;;;;;;;6248597;22;19918;-82
2022/11/13 02:32:56;;;;;;;;;;;;;;;;;;6248220;22;19911;-82
2022/11/13 02:35:22;;;;;;;;;;;;;;;;;;6248532;22;19912;-82
2022/11/13 02:37:47;;;;;;;;;;;;;;;;;;6275717;22;19942;-82
2022/11/13 02:40:13;;;;;;;;;;;;;;;;;;6249770;22;19918;-82
2022/11/13 02:42:39;;;;;;;;;;;;;;;;;;6249142;22;19911;-83
2022/11/13 02:45:05;;;;;;;;;;;;;;;;;;6250043;22;20387;-82
2022/11/13 02:47:31;;;;;;;;;;;;;;;;;;6248739;22;19911;-81
2022/11/13 02:49:57;;;;;;;;;;;;;;;;;;6250203;22;19911;-81
2022/11/13 02:52:23;;;;;;;;;;;;;;;;;;6250666;22;20284;-82
2022/11/13 02:54:49;;;;;;;;;;;;;;;;;;6248335;22;19919;-83
2022/11/13 02:57:16;;;;;;;;;;;;;;;;;;6248392;22;19961;-83
2022/11/13 02:59:42;;;;;;;;;;;;;;;;;;6223326;22;20329;-83
2022/11/13 03:02:08;;;;;;;;;;;;;;;;;;6248400;22;19946;-83
2022/11/13 03:04:34;;;;;;;;;;;;;;;;;;6248494;22;19986;-83
2022/11/13 03:07:00;;;;;;;;;;;;;;;;;;6249105;22;19911;-82
2022/11/13 03:09:25;;;;;;;;;;;;;;;;;;6276027;22;20267;-83
2022/11/13 03:11:51;;;;;;;;;;;;;;;;;;6249069;22;19917;-83
2022/11/13 03:14:17;;;;;;;;;;;;;;;;;;6249937;22;19915;-82
2022/11/13 03:16:43;;;;;;;;;;;;;;;;;;6276762;22;20325;-83
2022/11/13 03:19:09;;;;;;;;;;;;;;;;;;6248822;22;19915;-82
2022/11/13 03:21:35;;;;;;;;;;;;;;;;;;6249712;22;19911;-82
2022/11/13 03:24:02;;;;;;;;;;;;;;;;;;6248055;22;19978;-82
2022/11/13 03:26:28;;;;;;;;;;;;;;;;;;6248264;22;19917;-82
2022/11/13 03:28:54;;;;;;;;;;;;;;;;;;6248416;22;19911;-82
2022/11/13 03:31:20;;;;;;;;;;;;;;;;;;6247849;22;19976;-83
2022/11/13 03:33:46;;;;;;;;;;;;;;;;;;6248006;22;19911;-83
2022/11/13 03:36:12;;;;;;;;;;;;;;;;;;6247895;22;19918;-83
2022/11/13 03:38:38;;;;;;;;;;;;;;;;;;6222393;22;19923;-83
2022/11/13 03:41:04;;;;;;;;;;;;;;;;;;6247975;22;19911;-82
2022/11/13 03:43:29;;;;;;;;;;;;;;;;;;6222633;22;19918;-83
2022/11/13 03:45:55;;;;;;;;;;;;;;;;;;6248113;22;20237;-83
2022/11/13 03:48:21;;;;;;;;;;;;;;;;;;6275556;22;19911;-82
2022/11/13 03:50:47;;;;;;;;;;;;;;;;;;6248171;22;19923;-82
2022/11/13 03:53:13;;;;;;;;;;;;;;;;;;6247976;22;19915;-83
2022/11/13 03:55:39;;;;;;;;;;;;;;;;;;6248090;22;19965;-83
2022/11/13 03:58:05;;;;;;;;;;;;;;;;;;6247906;22;19916;-83
2022/11/13 04:00:31;;;;;;;;;;;;;;;;;;6247887;22;20343;-83
2022/11/13 04:02:56;;;;;;;;;;;;;;;;;;6248348;22;19911;-83
2022/11/13 04:05:22;;;;;;;;;;;;;;;;;;6276667;22;20288;-82
2022/11/13 04:07:48;;;;;;;;;;;;;;;;;;6250105;22;19915;-82
2022/11/13 04:10:14;;;;;;;;;;;;;;;;;;6250259;22;19922;-82
2022/11/13 04:12:40;;;;;;;;;;;;;;;;;;6250481;22;19911;-83
2022/11/13 04:15:06;;;;;;;;;;;;;;;;;;6250162;22;19917;-82
2022/11/13 04:17:32;;;;;;;;;;;;;;;;;;6249723;22;19915;-82
2022/11/13 04:19:58;;;;;;;;;;;;;;;;;;6250286;22;20347;-82
2022/11/13 04:22:24;;;;;;;;;;;;;;;;;;6277055;22;19911;-82
2022/11/13 04:24:49;;;;;;;;;;;;;;;;;;6249916;22;19981;-83
2022/11/13 04:27:15;;;;;;;;;;;;;;;;;;6249838;22;19919;-82
2022/11/13 04:29:41;;;;;;;;;;;;;;;;;;6249919;22;19918;-82
2022/11/13 04:32:07;;;;;;;;;;;;;;;;;;6249633;22;19934;-82
2022/11/13 04:34:33;;;;;;;;;;;;;;;;;;6276937;22;19911;-82
2022/11/13 04:36:59;;;;;;;;;;;;;;;;;;6250175;22;19911;-81
2022/11/13 04:39:25;;;;;;;;;;;;;;;;;;6249713;22;20371;-82
2022/11/13 04:44:35;;;;;;;;;;;;;;;;;;6249831;22;19943;-82
2022/11/13 04:47:01;;;;;;;;;;;;;;;;;;6224770;22;19918;-82
2022/11/13 04:49:27;;;;;;;;;;;;;;;;;;6249904;22;19915;-82
2022/11/13 04:51:53;;;;;;;;;;;;;;;;;;6250214;22;19911;-82
2022/11/13 04:54:19;;;;;;;;;;;;;;;;;;6249710;22;20241;-83
2022/11/13 04:56:45;;;;;;;;;;;;;;;;;;6249710;22;19911;-82
2022/11/13 04:59:11;;;;;;;;;;;;;;;;;;6249759;22;19953;-82
2022/11/13 05:01:37;;;;;;;;;;;;;;;;;;6249474;22;20268;-82
2022/11/13 05:04:02;;;;;;;;;;;;;;;;;;6224255;22;19947;-82
2022/11/13 05:06:28;;;;;;;;;;;;;;;;;;6249233;22;20285;-83
2022/11/13 05:08:54;;;;;;;;;;;;;;;;;;6224056;22;19921;-82
2022/11/13 05:11:20;;;;;;;;;;;;;;;;;;6249601;22;19994;-82
2022/11/13 05:13:46;;;;;;;;;;;;;;;;;;6249443;22;20321;-82
2022/11/13 05:16:12;;;;;;;;;;;;;;;;;;6249169;22;19911;-82
2022/11/13 05:18:38;;;;;;;;;;;;;;;;;;6249362;22;19988;-82
2022/11/13 05:21:04;;;;;;;;;;;;;;;;;;6249638;22;20006;-82
2022/11/13 05:23:29;;;;;;;;;;;;;;;;;;6249571;22;19911;-82
2022/11/13 05:25:55;;;;;;;;;;;;;;;;;;6249316;22;19969;-82
2022/11/13 05:28:21;;;;;;;;;;;;;;;;;;6249263;22;20330;-82
2022/11/13 05:30:47;;;;;;;;;;;;;;;;;;6249728;22;19938;-81
2022/11/13 05:33:13;;;;;;;;;;;;;;;;;;6224035;22;19950;-81
2022/11/13 05:35:39;;;;;;;;;;;;;;;;;;6249373;22;20355;-81
2022/11/13 05:38:05;;;;;;;;;;;;;;;;;;6249617;22;19970;-83
2022/11/13 05:40:31;;;;;;;;;;;;;;;;;;6249334;22;19977;-82
2022/11/13 05:42:57;;;;;;;;;;;;;;;;;;6249226;22;19918;-82
2022/11/13 05:45:23;;;;;;;;;;;;;;;;;;6223511;22;19911;-81
2022/11/13 05:47:49;;;;;;;;;;;;;;;;;;6249008;22;19934;-81
2022/11/13 05:50:15;;;;;;;;;;;;;;;;;;6249048;22;19915;-81
2022/11/13 05:52:41;;;;;;;;;;;;;;;;;;6249105;22;19934;-82
2022/11/13 05:55:07;;;;;;;;;;;;;;;;;;6249239;22;19911;-83
2022/11/13 05:57:32;;;;;;;;;;;;;;;;;;6249088;22;19919;-82
2022/11/13 05:59:58;;;;;;;;;;;;;;;;;;6248935;22;19965;-82
2022/11/13 06:02:24;;;;;;;;;;;;;;;;;;6248840;22;19961;-82
2022/11/13 06:04:50;;;;;;;;;;;;;;;;;;6249175;22;19911;-82
2022/11/13 06:07:16;;;;;;;;;;;;;;;;;;6223555;22;19918;-82
2022/11/13 06:09:42;;;;;;;;;;;;;;;;;;6249156;22;19911;-82
2022/11/13 06:12:08;;;;;;;;;;;;;;;;;;6249018;22;19915;-82
2022/11/13 06:14:34;;;;;;;;;;;;;;;;;;6249145;22;20225;-82
2022/11/13 06:17:00;;;;;;;;;;;;;;;;;;6276177;22;19945;-83
2022/11/13 06:19:25;;;;;;;;;;;;;;;;;;6275843;22;19922;-82
2022/11/13 06:21:51;;;;;;;;;;;;;;;;;;6248834;22;19993;-82
2022/11/13 06:24:17;;;;;;;;;;;;;;;;;;6248737;22;20333;-82
2022/11/13 06:26:43;;;;;;;;;;;;;;;;;;6223231;22;20122;-83
2022/11/13 06:29:09;;;;;;;;;;;;;;;;;;6275930;22;19911;-82
2022/11/13 06:31:35;;;;;;;;;;;;;;;;;;6248848;22;19911;-82
2022/11/13 06:34:01;;;;;;;;;;;;;;;;;;6248713;22;19917;-82
2022/11/13 06:36:27;;;;;;;;;;;;;;;;;;6276029;22;20325;-82
2022/11/13 06:38:53;;;;;;;;;;;;;;;;;;6248543;22;19915;-82
2022/11/13 06:41:18;;;;;;;;;;;;;;;;;;6248573;22;19918;-82
2022/11/13 06:43:46;;;;;;;;;;;;;;;;;;6248329;22;19911;-82
2022/11/13 06:46:12;;;;;;;;;;;;;;;;;;6248616;22;19914;-82
2022/11/13 06:48:38;;;;;;;;;;;;;;;;;;6248925;22;19946;-83
2022/11/13 06:51:04;;;;;;;;;;;;;;;;;;6248605;22;20325;-83
2022/11/13 06:53:30;;;;;;;;;;;;;;;;;;6275901;22;20149;-82
2022/11/13 06:55:57;;;;;;;;;;;;;;;;;;6248593;22;19934;-83
2022/11/13 06:58:23;;;;;;;;;;;;;;;;;;6248445;22;19915;-82
2022/11/13 07:00:49;;;;;;;;;;;;;;;;;;6217929;23;19921;-82
2022/11/13 07:03:14;;;;;;;;;;;;;;;;;;6222568;22;20300;-82
2022/11/13 07:05:40;;;;;;;;;;;;;;;;;;6249177;22;19957;-82
2022/11/13 07:08:06;;;;;;;;;;;;;;;;;;6248780;22;19990;-83
2022/11/13 07:10:32;;;;;;;;;;;;;;;;;;6248495;22;19964;-82
2022/11/13 07:12:59;;;;;;;;;;;;;;;;;;6248452;22;20383;-82
2022/11/13 07:15:24;;;;;;;;;;;;;;;;;;6275557;22;20252;-82
2022/11/13 07:17:50;;;;;;;;;;;;;;;;;;6223329;22;19990;-83
2022/11/13 07:20:16;;;;;;;;;;;;;;;;;;6248736;22;19982;-83
2022/11/13 07:22:42;;;;;;;;;;;;;;;;;;6248527;22;20008;-87
2022/11/13 07:25:08;;;;;;;;;;;;;;;;;;6223394;22;19990;-83
2022/11/13 07:27:34;;;;;;;;;;;;;;;;;;6248294;22;20030;-83
2022/11/13 07:30:00;;;;;;;;;;;;;;;;;;6248486;22;19965;-85
2022/11/13 07:32:26;;;;;;;;;;;;;;;;;;6223161;22;20321;-83
2022/11/13 07:34:52;;;;;;;;;;;;;;;;;;6223099;22;19918;-83
2022/11/13 07:37:17;;;;;;;;;;;;;;;;;;6248277;22;20349;-82
2022/11/13 07:39:46;;;;;;;;;;;;;;;;;;6275527;22;20293;-83
2022/11/13 07:42:12;;;;;;;;;;;;;;;;;;6250213;22;19958;-86
2022/11/13 07:44:38;;;;;;;;;;;;;;;;;;6250275;22;19922;-83
2022/11/13 07:47:04;;;;;;;;;;;;;;;;;;6250251;22;19911;-84
2022/11/13 07:49:30;;;;;;;;;;;;;;;;;;6250220;22;19998;-83
2022/11/13 07:51:56;;;;;;;;;;;;;;;;;;6250176;22;20255;-83
2022/11/13 07:54:22;;;;;;;;;;;;;;;;;;6250505;22;19994;-86
2022/11/13 07:56:48;;;;;;;;;;;;;;;;;;6224828;22;19915;-86
2022/11/13 07:59:14;;;;;;;;;;;;;;;;;;6224882;22;20354;-84
2022/11/13 08:01:40;;;;;;;;;;;;;;;;;;6249952;22;19922;-84
2022/11/13 08:04:05;;;;;;;;;;;;;;;;;;6224650;22;19986;-88
2022/11/13 08:06:31;;;;;;;;;;;;;;;;;;6224511;22;19915;-84
2022/11/13 08:08:57;;;;;;;;;;;;;;;;;;6249956;22;19915;-85
2022/11/13 08:11:23;;;;;;;;;;;;;;;;;;6249919;22;20328;-84
2022/11/13 08:13:49;;;;;;;;;;;;;;;;;;6249560;22;19911;-85
2022/11/13 08:16:15;;;;;;;;;;;;;;;;;;6249811;22;19911;-85
2022/11/13 08:18:41;;;;;;;;;;;;;;;;;;6249887;22;20222;-86
2022/11/13 08:21:07;;;;;;;;;;;;;;;;;;6249818;22;19991;-86
2022/11/13 08:23:34;;;;;;;;;;;;;;;;;;6249585;22;19982;-85
2022/11/13 08:26:00;;;;;;;;;;;;;;;;;;6249738;22;20244;-87
2022/11/13 08:28:26;;;;;;;;;;;;;;;;;;6249776;22;19941;-85
2022/11/13 08:30:52;;;;;;;;;;;;;;;;;;6224226;22;19910;-85
2022/11/13 08:33:18;;;;;;;;;;;;;;;;;;6224143;22;20332;-83
2022/11/13 08:35:44;;;;;;;;;;;;;;;;;;6224177;22;19918;-85
2022/11/13 08:38:10;;;;;;;;;;;;;;;;;;6249418;22;19922;-85
2022/11/13 08:40:35;;;;;;;;;;;;;;;;;;6249446;22;19915;-85
2022/11/13 08:43:01;;;;;;;;;;;;;;;;;;6249649;22;19911;-86
2022/11/13 08:45:27;;;;;;;;;;;;;;;;;;6224054;22;19919;-86
2022/11/13 08:47:53;;;;;;;;;;;;;;;;;;6224260;22;20236;-86
2022/11/13 08:50:19;;;;;;;;;;;;;;;;;;6274756;22;20279;-86
2022/11/13 08:52:45;;;;;;;;;;;;;;;;;;6249852;22;20214;-87
2022/11/13 08:55:11;;;;;;;;;;;;;;;;;;6221064;22;19915;-86
2022/11/13 08:57:39;;;;;;;;;;;;;;;;;;6223647;22;20340;-86
2022/11/13 09:00:05;;;;;;;;;;;;;;;;;;6249053;22;19990;-86
2022/11/13 09:02:31;;;;;;;;;;;;;;;;;;6224008;22;19981;-86
2022/11/13 09:04:56;;;;;;;;;;;;;;;;;;6249087;22;19926;-86
2022/11/13 09:07:22;;;;;;;;;;;;;;;;;;6248841;22;19911;-86
2022/11/13 09:09:48;;;;;;;;;;;;;;;;;;6248591;22;20356;-84
2022/11/13 09:12:14;;;;;;;;;;;;;;;;;;6249035;22;20368;-85
2022/11/13 09:14:40;;;;;;;;;;;;;;;;;;6248858;22;19911;-86
2022/11/13 09:17:06;;;;;;;;;;;;;;;;;;6249069;22;19982;-85
2022/11/13 09:19:33;;;;;;;;;;;;;;;;;;6248836;22;20013;-86
2022/11/13 09:21:59;;;;;;;;;;;;;;;;;;6223538;22;19911;-86
2022/11/13 09:24:25;;;;;;;;;;;;;;;;;;6248684;22;20245;-86
2022/11/13 09:26:51;;;;;;;;;;;;;;;;;;6249080;22;19918;-86
2022/11/13 09:29:17;;;;;;;;;;;;;;;;;;6223660;22;19911;-85
2022/11/13 09:31:43;;;;;;;;;;;;;;;;;;6224620;22;19911;-87
2022/11/13 09:34:09;;;;;;;;;;;;;;;;;;6248746;22;19941;-89
2022/11/13 09:36:34;;;;;;;;;;;;;;;;;;6223405;22;19915;-85
2022/11/13 09:39:00;;;;;;;;;;;;;;;;;;6223152;22;19922;-85
2022/11/13 09:41:27;;;;;;;;;;;;;;;;;;6248530;22;19911;-85
2022/11/13 09:43:52;;;;;;;;;;;;;;;;;;6248689;22;20320;-87
2022/11/13 09:46:18;;;;;;;;;;;;;;;;;;6223376;22;19918;-87
2022/11/13 09:48:44;;;;;;;;;;;;;;;;;;6223566;22;19911;-88
2022/11/13 09:51:10;;;;;;;;;;;;;;;;;;6248914;22;20325;-85
2022/11/13 09:53:36;;;;;;;;;;;;;;;;;;6248527;22;19911;-87
2022/11/13 09:56:02;;;;;;;;;;;;;;;;;;6248574;22;19918;-86
2022/11/13 09:58:28;;;;;;;;;;;;;;;;;;6223465;22;19919;-87
2022/11/13 10:00:54;;;;;;;;;;;;;;;;;;6218064;23;19916;-86
2022/11/13 10:03:20;;;;;;;;;;;;;;;;;;6222838;22;19918;-86
2022/11/13 10:05:46;;;;;;;;;;;;;;;;;;6223500;22;19973;-85
2022/11/13 10:08:12;;;;;;;;;;;;;;;;;;6248568;22;20241;-87
2022/11/13 10:10:39;;;;;;;;;;;;;;;;;;6223046;22;19964;-86
2022/11/13 10:13:04;;;;;;;;;;;;;;;;;;6248408;22;19982;-87
2022/11/13 10:15:30;;;;;;;;;;;;;;;;;;6248602;22;19954;-87
2022/11/13 10:17:56;;;;;;;;;;;;;;;;;;6248487;22;20020;-88
2022/11/13 10:20:22;;;;;;;;;;;;;;;;;;6223221;22;19988;-86
2022/11/13 10:22:48;;;;;;;;;;;;;;;;;;6248715;22;19919;-86
2022/11/13 10:25:14;;;;;;;;;;;;;;;;;;6248586;22;20291;-86
2022/11/13 10:27:40;;;;;;;;;;;;;;;;;;6248446;22;19918;-89
2022/11/13 10:30:06;;;;;;;;;;;;;;;;;;6248658;22;19980;-85
2022/11/13 10:32:32;;;;;;;;;;;;;;;;;;6248722;22;19911;-85
2022/11/13 10:34:58;;;;;;;;;;;;;;;;;;6223047;22;20006;-86
2022/11/13 10:37:24;;;;;;;;;;;;;;;;;;6248148;22;19911;-86
2022/11/13 10:39:50;;;;;;;;;;;;;;;;;;6248802;22;20387;-90
2022/11/13 10:42:16;;;;;;;;;;;;;;;;;;6248916;22;20009;-86
2022/11/13 10:44:42;;;;;;;;;;;;;;;;;;6222937;22;19911;-86
2022/11/13 10:47:07;;;;;;;;;;;;;;;;;;6248063;22;19922;-86
2022/11/13 10:49:33;;;;;;;;;;;;;;;;;;6248272;22;19911;-86
2022/11/13 10:52:01;;;;;;;;;;;;;;;;;;6248380;22;20305;-87
2022/11/13 10:54:27;;;;;;;;;;;;;;;;;;6248089;22;19911;-86
2022/11/13 10:56:53;;;;;;;;;;;;;;;;;;6222953;22;19917;-87
2022/11/13 10:59:19;;;;;;;;;;;;;;;;;;6248465;22;20244;-86
2022/11/13 11:01:44;;;;;;;;;;;;;;;;;;6248244;22;19915;-85
2022/11/13 11:04:10;;;;;;;;;;;;;;;;;;6250562;22;19911;-88
2022/11/13 11:06:36;;;;;;;;;;;;;;;;;;6252727;22;20422;-91
2022/11/13 11:09:02;;;;;;;;;;;;;;;;;;6251278;22;19950;-90
2022/11/13 11:14:13;;;;;;;;;;;;;;;;;;6249701;22;19990;-88
2022/11/13 11:16:39;;;;;;;;;;;;;;;;;;6250591;22;19911;-87
2022/11/13 11:19:05;;;;;;;;;;;;;;;;;;6250569;22;20245;-86
2022/11/13 11:21:31;;;;;;;;;;;;;;;;;;6250775;22;19958;-85
2022/11/13 11:23:57;;;;;;;;;;;;;;;;;;6225259;22;19911;-85
2022/11/13 11:26:22;;;;;;;;;;;;;;;;;;6277657;22;19911;-87
2022/11/13 11:28:48;;;;;;;;;;;;;;;;;;6250580;22;20297;-86
2022/11/13 11:31:14;;;;;;;;;;;;;;;;;;6250848;22;19919;-86
2022/11/13 11:33:40;;;;;;;;;;;;;;;;;;6250575;22;19915;-86
2022/11/13 11:36:07;;;;;;;;;;;;;;;;;;6224999;22;19911;-86
2022/11/13 11:38:33;;;;;;;;;;;;;;;;;;6250200;22;19993;-87
2022/11/13 11:40:59;;;;;;;;;;;;;;;;;;6250357;22;19947;-87
2022/11/13 11:43:25;;;;;;;;;;;;;;;;;;6250096;22;19982;-86
2022/11/13 11:45:52;;;;;;;;;;;;;;;;;;6250274;22;19911;-86
2022/11/13 11:48:17;;;;;;;;;;;;;;;;;;6249993;22;19918;-86
2022/11/13 11:50:45;;;;;;;;;;;;;;;;;;6225042;22;20038;-86
2022/11/13 11:53:11;;;;;;;;;;;;;;;;;;6224824;22;19918;-87
2022/11/13 11:55:37;;;;;;;;;;;;;;;;;;6224780;22;20244;-86
2022/11/13 11:58:03;;;;;;;;;;;;;;;;;;6248350;22;19989;-86
2022/11/13 12:00:29;;;;;;;;;;;;;;;;;;6250028;22;19985;-87
2022/11/13 12:02:55;;;;;;;;;;;;;;;;;;6224428;22;19943;-87
2022/11/13 12:05:24;;;;;;;;;;;;;;;;;;6249990;22;19953;-88
2022/11/13 12:07:51;;;;;;;;;;;;;;;;;;6250162;22;19917;-87
2022/11/13 12:10:17;;;;;;;;;;;;;;;;;;6224740;22;19915;-86
2022/11/13 12:12:43;;;;;;;;;;;;;;;;;;6249703;22;19934;-86
2022/11/13 12:15:10;;;;;;;;;;;;;;;;;;6223920;22;19961;-86
2022/11/13 12:17:36;;;;;;;;;;;;;;;;;;6248220;22;19911;-87
2022/11/13 12:20:02;;;;;;;;;;;;;;;;;;6249568;22;20387;-86
2022/11/13 12:22:28;;;;;;;;;;;;;;;;;;6249731;22;20273;-86
2022/11/13 12:24:54;;;;;;;;;;;;;;;;;;6249120;22;19942;-87
2022/11/13 12:27:20;;;;;;;;;;;;;;;;;;6224199;22;19980;-86
2022/11/13 12:29:46;;;;;;;;;;;;;;;;;;6249560;22;19917;-86
2022/11/13 12:32:12;;;;;;;;;;;;;;;;;;6249734;22;20341;-86
2022/11/13 12:34:37;;;;;;;;;;;;;;;;;;6249522;22;20347;-86
2022/11/13 12:37:03;;;;;;;;;;;;;;;;;;6224135;22;19911;-86
2022/11/13 12:39:29;;;;;;;;;;;;;;;;;;6249289;22;19919;-86
2022/11/13 12:41:55;;;;;;;;;;;;;;;;;;6224468;22;19911;-86
2022/11/13 12:44:21;;;;;;;;;;;;;;;;;;6249686;22;19917;-88
2022/11/13 12:46:48;;;;;;;;;;;;;;;;;;6224498;22;20016;-86
2022/11/13 12:49:14;;;;;;;;;;;;;;;;;;6224516;22;20329;-86
2022/11/13 12:51:40;;;;;;;;;;;;;;;;;;6249645;22;19911;-86
2022/11/13 12:54:06;;;;;;;;;;;;;;;;;;6224386;22;19915;-86
2022/11/13 12:56:32;;;;;;;;;;;;;;;;;;6249466;22;20321;-86
2022/11/13 12:58:58;;;;;;;;;;;;;;;;;;6224148;22;19982;-85
2022/11/13 13:01:24;;;;;;;;;;;;;;;;;;6219226;23;20388;-86
2022/11/13 13:03:50;;;;;;;;;;;;;;;;;;6218849;23;19912;-86
2022/11/13 13:06:16;;;;;;;;;;;;;;;;;;6219151;22;19911;-87
2022/11/13 13:08:41;;;;;;;;;;;;;;;;;;6194010;23;19912;-86
2022/11/13 13:11:07;;;;;;;;;;;;;;;;;;6245179;23;19986;-86
2022/11/13 13:13:33;;;;;;;;;;;;;;;;;;6218727;23;20127;-87
2022/11/13 13:16:01;;;;;;;;;;;;;;;;;;6218967;23;19918;-86
2022/11/13 13:18:27;;;;;;;;;;;;;;;;;;6194056;23;20218;-86
2022/11/13 13:20:53;;;;;;;;;;;;;;;;;;6193860;23;19962;-86
2022/11/13 13:23:19;;;;;;;;;;;;;;;;;;6218893;23;20202;-86
2022/11/13 13:25:45;;;;;;;;;;;;;;;;;;6218845;23;19918;-86
2022/11/13 13:28:11;;;;;;;;;;;;;;;;;;6218581;23;19911;-85
2022/11/13 13:30:37;;;;;;;;;;;;;;;;;;6218967;23;20355;-85
2022/11/13 13:33:03;;;;;;;;;;;;;;;;;;6218816;23;19911;-85
2022/11/13 13:35:28;;;;;;;;;;;;;;;;;;6218593;23;19942;-86
2022/11/13 13:37:54;;;;;;;;;;;;;;;;;;6193106;23;20159;-85
2022/11/13 13:40:20;;;;;;;;;;;;;;;;;;6218711;23;19914;-85
2022/11/13 13:42:46;;;;;;;;;;;;;;;;;;6218430;23;19911;-84
2022/11/13 13:45:12;;;;;;;;;;;;;;;;;;6218766;23;20325;-84
2022/11/13 13:47:38;;;;;;;;;;;;;;;;;;6218578;23;19922;-82
2022/11/13 13:50:04;;;;;;;;;;;;;;;;;;6218355;23;19911;-83
2022/11/13 13:52:30;;;;;;;;;;;;;;;;;;6218759;23;20292;-81
2022/11/13 13:54:56;;;;;;;;;;;;;;;;;;6218528;23;20356;-82
2022/11/13 13:57:22;;;;;;;;;;;;;;;;;;6245697;22;20246;-82
2022/11/13 13:59:47;;;;;;;;;;;;;;;;;;6218768;22;20046;-82
2022/11/13 14:02:13;;;;;;;;;;;;;;;;;;6248825;22;19922;-82
2022/11/13 14:04:39;;;;;;;;;;;;;;;;;;6248970;22;20221;-81
2022/11/13 14:07:05;;;;;;;;;;;;;;;;;;6246857;22;19964;-81
2022/11/13 14:09:31;;;;;;;;;;;;;;;;;;6248764;22;19952;-81
2022/11/13 14:11:57;;;;;;;;;;;;;;;;;;6275708;22;20352;-81
2022/11/13 14:14:23;;;;;;;;;;;;;;;;;;6248598;22;19918;-81
2022/11/13 14:16:49;;;;;;;;;;;;;;;;;;6248746;22;19911;-81
2022/11/13 14:19:15;;;;;;;;;;;;;;;;;;6275997;22;20244;-81
2022/11/13 14:21:41;;;;;;;;;;;;;;;;;;6223663;22;19915;-81
2022/11/13 14:24:07;;;;;;;;;;;;;;;;;;6276069;22;19915;-81
2022/11/13 14:26:33;;;;;;;;;;;;;;;;;;6275820;22;20373;-81
2022/11/13 14:28:59;;;;;;;;;;;;;;;;;;6223518;22;19982;-81
2022/11/13 14:31:25;;;;;;;;;;;;;;;;;;6248457;22;19989;-80
2022/11/13 14:33:50;;;;;;;;;;;;;;;;;;6248381;22;20346;-81
2022/11/13 14:36:19;;;;;;;;;;;;;;;;;;6275777;22;19911;-81
2022/11/13 14:38:45;;;;;;;;;;;;;;;;;;6248448;22;19917;-81
2022/11/13 14:41:11;;;;;;;;;;;;;;;;;;6275699;22;19982;-81
2022/11/13 14:43:37;;;;;;;;;;;;;;;;;;6223085;22;19953;-81
2022/11/13 14:46:03;;;;;;;;;;;;;;;;;;6248239;22;20328;-81
2022/11/13 14:48:29;;;;;;;;;;;;;;;;;;6248361;22;19911;-81
2022/11/13 14:50:55;;;;;;;;;;;;;;;;;;6248124;22;19918;-81
2022/11/13 14:53:21;;;;;;;;;;;;;;;;;;6248414;22;19930;-82
2022/11/13 14:55:46;;;;;;;;;;;;;;;;;;6248791;22;19976;-81
2022/11/13 14:58:13;;;;;;;;;;;;;;;;;;6248292;22;20338;-81
2022/11/13 15:00:39;;;;;;;;;;;;;;;;;;6275423;22;19915;-81
2022/11/13 15:03:05;;;;;;;;;;;;;;;;;;6248292;22;20276;-81
2022/11/13 15:05:31;;;;;;;;;;;;;;;;;;6222856;22;19997;-81
2022/11/13 15:07:57;;;;;;;;;;;;;;;;;;6275137;22;19911;-81
2022/11/13 15:10:23;;;;;;;;;;;;;;;;;;6247931;22;19929;-81
2022/11/13 15:12:49;;;;;;;;;;;;;;;;;;6247907;22;19911;-81
2022/11/13 15:15:15;;;;;;;;;;;;;;;;;;6275441;22;19919;-81
2022/11/13 15:17:42;;;;;;;;;;;;;;;;;;6248040;22;20247;-82
2022/11/13 15:20:08;;;;;;;;;;;;;;;;;;6248280;22;19915;-84
2022/11/13 15:22:34;;;;;;;;;;;;;;;;;;6247997;22;20021;-86
2022/11/13 15:24:59;;;;;;;;;;;;;;;;;;6248250;22;19915;-84
2022/11/13 15:27:25;;;;;;;;;;;;;;;;;;6248152;22;20208;-83
2022/11/13 15:29:51;;;;;;;;;;;;;;;;;;6222718;22;19911;-84
2022/11/13 15:32:17;;;;;;;;;;;;;;;;;;6248257;22;19911;-84
2022/11/13 15:34:43;;;;;;;;;;;;;;;;;;6248025;22;20262;-83
2022/11/13 15:37:09;;;;;;;;;;;;;;;;;;6247808;22;19918;-84
2022/11/13 15:39:35;;;;;;;;;;;;;;;;;;6247824;22;19919;-85
2022/11/13 15:42:01;;;;;;;;;;;;;;;;;;6248482;22;20336;-84
2022/11/13 15:44:27;;;;;;;;;;;;;;;;;;6248130;22;20222;-84
2022/11/13 15:46:53;;;;;;;;;;;;;;;;;;6222743;22;19910;-84
2022/11/13 15:49:19;;;;;;;;;;;;;;;;;;6247927;22;20359;-83
2022/11/13 15:51:45;;;;;;;;;;;;;;;;;;6248063;22;19991;-83
2022/11/13 15:54:11;;;;;;;;;;;;;;;;;;6222998;22;19911;-83
2022/11/13 15:56:37;;;;;;;;;;;;;;;;;;6247798;22;19911;-83
2022/11/13 15:59:02;;;;;;;;;;;;;;;;;;6222840;22;20305;-83
2022/11/13 16:01:28;;;;;;;;;;;;;;;;;;6244816;23;19919;-83
2022/11/13 16:03:57;;;;;;;;;;;;;;;;;;6219679;22;19911;-84
2022/11/13 16:06:22;;;;;;;;;;;;;;;;;;6224656;22;19911;-84
2022/11/13 16:08:48;;;;;;;;;;;;;;;;;;6249965;22;19986;-84
2022/11/13 16:11:14;;;;;;;;;;;;;;;;;;6249825;22;19946;-84
2022/11/13 16:13:40;;;;;;;;;;;;;;;;;;6250156;22;19919;-86
2022/11/13 16:16:06;;;;;;;;;;;;;;;;;;6250135;22;19954;-85
2022/11/13 16:18:32;;;;;;;;;;;;;;;;;;6250003;22;20384;-86
2022/11/13 16:20:58;;;;;;;;;;;;;;;;;;6250153;22;19965;-85
2022/11/13 16:23:24;;;;;;;;;;;;;;;;;;6249919;22;19986;-85
2022/11/13 16:25:50;;;;;;;;;;;;;;;;;;6250160;22;19911;-84
2022/11/13 16:28:16;;;;;;;;;;;;;;;;;;6225226;22;19915;-85
2022/11/13 16:30:42;;;;;;;;;;;;;;;;;;6249320;22;19919;-85
2022/11/13 16:33:09;;;;;;;;;;;;;;;;;;6250734;22;19973;-84
2022/11/13 16:35:35;;;;;;;;;;;;;;;;;;6251099;22;19912;-84
2022/11/13 16:38:01;;;;;;;;;;;;;;;;;;6250121;22;19915;-84
2022/11/13 16:40:27;;;;;;;;;;;;;;;;;;6250299;22;19914;-84
2022/11/13 16:42:52;;;;;;;;;;;;;;;;;;6250798;22;19919;-85